Time;durP1;ratioP1;P1;durP2;ratioP2;P2;SDS_P1;SDS_P2;PMS_P1;PMS_P2;Temp;Humidity;BMP_temperature;BMP_pressure;BME280_temperature;BME280_humidity;BME280_pressure;Samples;Min_cycle;Max_cycle;Signal;HPM_P1;HPM_P2
2022/03/08 00:00:00;;;;;;;;;;;2.00;96.00;;;;;;5076149;28;19908;-65
2022/03/08 00:02:26;;;;;;;;;;;1.80;96.40;;;;;;5076534;28;20424;-66
2022/03/08 00:04:51;;;;;;;;;;;2.10;96.30;;;;;;5076493;28;19908;-65
2022/03/08 00:07:17;;;;;;;;;;;2.20;96.00;;;;;;5076220;28;19912;-64
2022/03/08 00:09:45;;;;;;;;;;;2.10;96.00;;;;;;5076242;28;19986;-66
2022/03/08 00:12:11;;;;;;;;;;;2.10;96.10;;;;;;5076390;28;20355;-66
2022/03/08 00:14:37;;;;;;;;;;;2.10;96.00;;;;;;5076323;28;19909;-66
2022/03/08 00:17:03;;;;;;;;;;;2.20;96.00;;;;;;5071180;28;19923;-66
2022/03/08 00:19:28;;;;;;;;;;;2.20;95.90;;;;;;5053987;28;19954;-65
2022/03/08 00:21:54;;;;;;;;;;;2.20;95.90;;;;;;5053661;28;20314;-66
2022/03/08 00:24:20;;;;;;;;;;;2.20;96.00;;;;;;5054251;28;19913;-65
2022/03/08 00:26:45;;;;;;;;;;;2.20;95.90;;;;;;5055972;28;20019;-66
2022/03/08 00:29:11;;;;;;;;;;;2.30;95.90;;;;;;5055964;28;19918;-66
2022/03/08 00:31:37;;;;;;;;;;;2.30;95.80;;;;;;5054659;28;19966;-65
2022/03/08 00:34:04;;;;;;;;;;;2.30;95.70;;;;;;5055811;28;19963;-66
2022/03/08 00:36:30;;;;;;;;;;;2.20;95.80;;;;;;5055664;28;19916;-66
2022/03/08 00:38:55;;;;;;;;;;;2.20;95.90;;;;;;5055502;28;19995;-65
2022/03/08 00:41:21;;;;;;;;;;;2.20;96.00;;;;;;5055610;28;19967;-66
2022/03/08 00:43:47;;;;;;;;;;;2.10;95.90;;;;;;5055543;28;20279;-66
2022/03/08 00:46:12;;;;;;;;;;;2.10;96.20;;;;;;5055659;28;20254;-66
2022/03/08 00:48:38;;;;;;;;;;;2.10;96.10;;;;;;5055667;28;20256;-66
2022/03/08 00:51:04;;;;;;;;;;;2.20;96.10;;;;;;5055523;28;20082;-64
2022/03/08 00:53:29;;;;;;;;;;;2.10;96.00;;;;;;5055487;28;19913;-66
2022/03/08 00:55:55;;;;;;;;;;;2.00;96.40;;;;;;5055396;28;19963;-66
2022/03/08 00:58:20;;;;;;;;;;;2.00;96.30;;;;;;5055434;28;19908;-65
2022/03/08 01:00:46;;;;;;;;;;;2.10;96.10;;;;;;5055430;28;19909;-65
2022/03/08 01:03:12;;;;;;;;;;;1.90;96.40;;;;;;5055166;28;20392;-65
2022/03/08 01:05:37;;;;;;;;;;;1.80;96.20;;;;;;5055275;28;19909;-64
2022/03/08 01:08:03;;;;;;;;;;;1.90;96.40;;;;;;5055274;28;19939;-66
2022/03/08 01:10:29;;;;;;;;;;;2.00;96.20;;;;;;5054543;28;19915;-65
2022/03/08 01:13:00;;;;;;;;;;;2.00;96.10;;;;;;5055247;28;19955;-66
2022/03/08 01:15:26;;;;;;;;;;;2.00;96.00;;;;;;5055069;28;20330;-65
2022/03/08 01:17:53;;;;;;;;;;;1.90;96.20;;;;;;5055100;28;19966;-66
2022/03/08 01:20:20;;;;;;;;;;;1.80;96.40;;;;;;5054983;28;20394;-66
2022/03/08 01:22:45;;;;;;;;;;;1.90;96.20;;;;;;5054906;28;20322;-66
2022/03/08 01:25:12;;;;;;;;;;;1.70;96.40;;;;;;5054882;28;19957;-65
2022/03/08 01:27:38;;;;;;;;;;;1.60;96.40;;;;;;5054811;28;19923;-65
2022/03/08 01:30:05;;;;;;;;;;;1.60;96.90;;;;;;5054729;28;19908;-66
2022/03/08 01:32:31;;;;;;;;;;;1.70;96.80;;;;;;5054757;28;20405;-66
2022/03/08 01:34:56;;;;;;;;;;;1.70;96.60;;;;;;5054571;28;19917;-64
2022/03/08 01:37:22;;;;;;;;;;;1.70;96.70;;;;;;5054380;28;19969;-66
2022/03/08 01:39:48;;;;;;;;;;;1.60;96.90;;;;;;5054440;28;19986;-65
2022/03/08 01:42:15;;;;;;;;;;;1.60;97.00;;;;;;5054579;28;19908;-66
2022/03/08 01:44:41;;;;;;;;;;;1.60;96.90;;;;;;5054580;28;19909;-66
2022/03/08 01:47:07;;;;;;;;;;;1.80;96.80;;;;;;5054441;28;20011;-66
2022/03/08 01:49:33;;;;;;;;;;;1.80;96.80;;;;;;5054278;28;20017;-64
2022/03/08 01:51:59;;;;;;;;;;;1.90;96.70;;;;;;5054218;28;20355;-66
2022/03/08 01:54:24;;;;;;;;;;;2.00;96.40;;;;;;5070504;28;19952;-66
2022/03/08 01:56:50;;;;;;;;;;;2.00;96.40;;;;;;5074179;28;20006;-66
2022/03/08 01:59:16;;;;;;;;;;;1.90;96.50;;;;;;5074324;28;19908;-66
2022/03/08 02:01:41;;;;;;;;;;;1.80;96.60;;;;;;5074135;28;19918;-65
2022/03/08 02:04:07;;;;;;;;;;;1.90;96.50;;;;;;5072655;28;19916;-65
2022/03/08 02:06:33;;;;;;;;;;;2.00;96.00;;;;;;5073988;28;19908;-66
2022/03/08 02:09:00;;;;;;;;;;;2.20;95.60;;;;;;5073800;28;19954;-66
2022/03/08 02:11:26;;;;;;;;;;;2.10;95.50;;;;;;5073934;28;19908;-66
2022/03/08 02:13:51;;;;;;;;;;;2.10;95.60;;;;;;5074076;28;19908;-65
2022/03/08 02:16:17;;;;;;;;;;;2.10;95.70;;;;;;5072572;28;19931;-66
2022/03/08 02:18:43;;;;;;;;;;;2.10;95.80;;;;;;5073291;28;19912;-66
2022/03/08 02:21:08;;;;;;;;;;;2.30;95.60;;;;;;5073177;28;20374;-66
2022/03/08 02:23:34;;;;;;;;;;;2.30;95.50;;;;;;5073448;28;19939;-65
2022/03/08 02:26:00;;;;;;;;;;;2.10;95.60;;;;;;5073720;28;20009;-66
2022/03/08 02:28:27;;;;;;;;;;;2.00;95.80;;;;;;5073879;28;19912;-66
2022/03/08 02:30:53;;;;;;;;;;;2.00;95.80;;;;;;5073811;28;19912;-66
2022/03/08 02:33:19;;;;;;;;;;;2.00;95.90;;;;;;5073487;28;20058;-64
2022/03/08 02:35:45;;;;;;;;;;;2.00;95.80;;;;;;5073580;28;20257;-66
2022/03/08 02:38:10;;;;;;;;;;;1.90;95.80;;;;;;5072333;28;19916;-66
2022/03/08 02:40:38;;;;;;;;;;;1.80;95.80;;;;;;5073681;28;19954;-66
2022/03/08 02:43:08;;;;;;;;;;;1.80;95.70;;;;;;5073596;28;19908;-65
2022/03/08 02:45:34;;;;;;;;;;;2.00;95.70;;;;;;5073498;28;19919;-66
2022/03/08 02:48:00;;;;;;;;;;;2.00;95.60;;;;;;5073513;28;19995;-66
2022/03/08 02:50:25;;;;;;;;;;;2.00;95.60;;;;;;5073424;28;19908;-66
2022/03/08 02:52:52;;;;;;;;;;;2.00;95.70;;;;;;5073664;28;19912;-66
2022/03/08 02:55:19;;;;;;;;;;;1.80;95.90;;;;;;5073523;28;20302;-64
2022/03/08 02:57:45;;;;;;;;;;;1.70;96.10;;;;;;5073437;28;19913;-66
2022/03/08 03:00:12;;;;;;;;;;;1.80;96.20;;;;;;5073326;28;19955;-66
2022/03/08 03:02:38;;;;;;;;;;;1.90;96.00;;;;;;5073388;28;20424;-64
2022/03/08 03:05:03;;;;;;;;;;;1.90;95.90;;;;;;5073369;28;20002;-66
2022/03/08 03:07:29;;;;;;;;;;;1.90;95.90;;;;;;5073203;28;20002;-65
2022/03/08 03:12:59;;;;;;;;;;;1.70;96.20;;;;;;5093221;28;19946;-66
2022/03/08 03:15:25;;;;;;;;;;;1.60;96.20;;;;;;5093133;28;19919;-65
2022/03/08 03:17:51;;;;;;;;;;;1.70;96.30;;;;;;5093522;28;19912;-65
2022/03/08 03:20:17;;;;;;;;;;;1.90;96.20;;;;;;5093501;28;19915;-66
2022/03/08 03:22:44;;;;;;;;;;;1.70;96.10;;;;;;5093281;28;20244;-66
2022/03/08 03:25:10;;;;;;;;;;;1.40;96.30;;;;;;5093364;28;19912;-65
2022/03/08 03:27:36;;;;;;;;;;;1.40;96.50;;;;;;5093264;28;19999;-65
2022/03/08 03:30:03;;;;;;;;;;;1.30;96.90;;;;;;5093234;28;19991;-66
2022/03/08 03:32:29;;;;;;;;;;;1.20;97.10;;;;;;5093293;28;19908;-66
2022/03/08 03:34:54;;;;;;;;;;;1.30;97.10;;;;;;5097284;28;19911;-66
2022/03/08 03:37:20;;;;;;;;;;;1.30;97.10;;;;;;5097126;28;20395;-64
2022/03/08 03:39:46;;;;;;;;;;;1.40;97.00;;;;;;5097203;28;19922;-66
2022/03/08 03:42:11;;;;;;;;;;;1.40;97.10;;;;;;5097126;28;19978;-66
2022/03/08 03:44:37;;;;;;;;;;;1.40;97.00;;;;;;5097055;28;19915;-66
2022/03/08 03:47:02;;;;;;;;;;;1.20;97.00;;;;;;5097041;28;19915;-66
2022/03/08 03:49:28;;;;;;;;;;;1.20;97.20;;;;;;5097008;28;19944;-66
2022/03/08 03:51:54;;;;;;;;;;;1.30;97.30;;;;;;5096849;28;19915;-65
2022/03/08 03:54:22;;;;;;;;;;;1.30;97.30;;;;;;5095332;28;20290;-66
2022/03/08 03:56:48;;;;;;;;;;;1.80;97.00;;;;;;5096615;28;19970;-65
2022/03/08 03:59:14;;;;;;;;;;;1.90;96.70;;;;;;5096710;28;20339;-66
2022/03/08 04:01:39;;;;;;;;;;;1.90;96.80;;;;;;5096799;28;19915;-66
2022/03/08 04:04:05;;;;;;;;;;;2.00;96.90;;;;;;5096626;28;20386;-66
2022/03/08 04:06:32;;;;;;;;;;;1.90;96.80;;;;;;5096633;28;20010;-65
2022/03/08 04:08:58;;;;;;;;;;;1.80;97.00;;;;;;5096647;28;19912;-65
2022/03/08 04:11:24;;;;;;;;;;;1.90;97.00;;;;;;5096534;28;19914;-66
2022/03/08 04:13:50;;;;;;;;;;;1.70;97.00;;;;;;5095118;28;20271;-64
2022/03/08 04:16:15;;;;;;;;;;;1.70;97.20;;;;;;5096419;28;19920;-66
2022/03/08 04:18:41;;;;;;;;;;;1.40;97.40;;;;;;5096410;28;19918;-65
2022/03/08 04:21:06;;;;;;;;;;;1.50;97.70;;;;;;5091575;28;19912;-65
2022/03/08 04:23:32;;;;;;;;;;;1.50;97.60;;;;;;5068563;28;20346;-65
2022/03/08 04:25:58;;;;;;;;;;;1.40;97.80;;;;;;5054173;28;20356;-66
2022/03/08 04:28:23;;;;;;;;;;;1.00;97.90;;;;;;5054488;28;20367;-66
2022/03/08 04:30:49;;;;;;;;;;;0.70;98.60;;;;;;5056014;28;19958;-66
2022/03/08 04:33:15;;;;;;;;;;;0.60;99.10;;;;;;5054741;28;19916;-66
2022/03/08 04:35:40;;;;;;;;;;;0.70;99.00;;;;;;5053645;28;19916;-65
2022/03/08 04:38:06;;;;;;;;;;;0.80;98.90;;;;;;5055530;28;19923;-66
2022/03/08 04:40:32;;;;;;;;;;;0.80;99.30;;;;;;5055546;28;19967;-66
2022/03/08 04:42:57;;;;;;;;;;;1.00;99.20;;;;;;5062050;28;20303;-64
2022/03/08 04:45:23;;;;;;;;;;;1.30;98.80;;;;;;5074459;28;20351;-65
2022/03/08 04:47:49;;;;;;;;;;;1.20;98.70;;;;;;5074342;28;19919;-65
2022/03/08 04:50:16;;;;;;;;;;;1.20;98.50;;;;;;5075670;28;19975;-66
2022/03/08 04:52:43;;;;;;;;;;;1.10;98.80;;;;;;5075629;28;19951;-65
2022/03/08 04:55:09;;;;;;;;;;;1.30;99.10;;;;;;5075584;28;19912;-65
2022/03/08 04:57:34;;;;;;;;;;;1.30;98.90;;;;;;5075253;28;19924;-66
2022/03/08 05:00:00;;;;;;;;;;;1.20;98.80;;;;;;5075095;28;20046;-66
2022/03/08 05:02:26;;;;;;;;;;;0.90;99.10;;;;;;5075192;28;19954;-65
2022/03/08 05:04:51;;;;;;;;;;;0.80;99.60;;;;;;5075177;28;19908;-66
2022/03/08 05:07:17;;;;;;;;;;;0.90;99.90;;;;;;5075304;28;20352;-64
2022/03/08 05:09:42;;;;;;;;;;;1.10;99.90;;;;;;5075237;28;19918;-66
2022/03/08 05:12:08;;;;;;;;;;;1.10;99.80;;;;;;5075262;28;19908;-65
2022/03/08 05:14:37;;;;;;;;;;;1.20;99.90;;;;;;5074712;28;19912;-65
2022/03/08 05:17:03;;;;;;;;;;;1.20;99.70;;;;;;5074875;28;19916;-65
2022/03/08 05:19:29;;;;;;;;;;;1.20;99.80;;;;;;5074836;28;19908;-66
2022/03/08 05:21:54;;;;;;;;;;;1.00;99.90;;;;;;5074724;28;19916;-65
2022/03/08 05:24:20;;;;;;;;;;;0.90;99.90;;;;;;5074760;28;19920;-65
2022/03/08 05:26:46;;;;;;;;;;;0.70;99.90;;;;;;5068583;28;19912;-66
2022/03/08 05:29:11;;;;;;;;;;;0.80;99.90;;;;;;5062162;28;20413;-63
2022/03/08 05:31:37;;;;;;;;;;;1.00;99.90;;;;;;5054772;28;19951;-64
2022/03/08 05:34:03;;;;;;;;;;;1.00;99.90;;;;;;5054479;28;20435;-66
2022/03/08 05:36:28;;;;;;;;;;;1.20;99.90;;;;;;5054402;28;19920;-65
2022/03/08 05:38:54;;;;;;;;;;;1.20;99.90;;;;;;5054798;28;19944;-65
2022/03/08 05:41:20;;;;;;;;;;;1.20;99.80;;;;;;5054665;28;19909;-65
2022/03/08 05:43:46;;;;;;;;;;;1.10;99.90;;;;;;5054503;28;19916;-66
2022/03/08 05:46:11;;;;;;;;;;;0.90;99.90;;;;;;5054475;28;19935;-66
2022/03/08 05:48:37;;;;;;;;;;;1.10;99.90;;;;;;5053248;28;19912;-66
2022/03/08 05:51:03;;;;;;;;;;;1.10;99.90;;;;;;5054450;28;19909;-65
2022/03/08 05:53:28;;;;;;;;;;;1.10;99.70;;;;;;5054097;28;19905;-65
2022/03/08 05:55:54;;;;;;;;;;;1.20;99.70;;;;;;5053736;28;20007;-65
2022/03/08 05:58:20;;;;;;;;;;;1.20;99.60;;;;;;5054101;28;19917;-65
2022/03/08 06:00:45;;;;;;;;;;;1.30;99.50;;;;;;5054050;28;19909;-66
2022/03/08 06:03:11;;;;;;;;;;;1.30;99.40;;;;;;5054197;28;19909;-65
2022/03/08 06:05:37;;;;;;;;;;;1.20;99.50;;;;;;5054141;28;19908;-64
2022/03/08 06:08:03;;;;;;;;;;;1.10;99.70;;;;;;5054011;28;20372;-66
2022/03/08 06:10:29;;;;;;;;;;;1.20;99.70;;;;;;5053991;28;19955;-66
2022/03/08 06:12:54;;;;;;;;;;;1.20;99.60;;;;;;5069458;28;20486;-66
2022/03/08 06:15:20;;;;;;;;;;;1.20;99.90;;;;;;5052686;28;19912;-65
2022/03/08 06:17:46;;;;;;;;;;;1.10;99.90;;;;;;5053902;28;19920;-66
2022/03/08 06:20:11;;;;;;;;;;;1.00;99.90;;;;;;5053927;28;20003;-66
2022/03/08 06:22:37;;;;;;;;;;;1.10;99.90;;;;;;5053782;28;20011;-65
2022/03/08 06:25:03;;;;;;;;;;;1.30;99.90;;;;;;5054171;28;19916;-63
2022/03/08 06:27:29;;;;;;;;;;;1.20;99.90;;;;;;5056310;28;20367;-65
2022/03/08 06:29:55;;;;;;;;;;;1.20;99.90;;;;;;5062940;28;19909;-65
2022/03/08 06:32:20;;;;;;;;;;;1.10;99.90;;;;;;5053092;28;19912;-65
2022/03/08 06:34:46;;;;;;;;;;;1.10;99.90;;;;;;5053579;28;19912;-64
2022/03/08 06:37:12;;;;;;;;;;;1.10;99.90;;;;;;5052454;28;19942;-65
2022/03/08 06:39:38;;;;;;;;;;;1.10;99.90;;;;;;5053514;28;19999;-65
2022/03/08 06:42:04;;;;;;;;;;;1.10;99.90;;;;;;5053526;28;19999;-64
2022/03/08 06:44:31;;;;;;;;;;;1.10;99.90;;;;;;5053305;28;19908;-66
2022/03/08 06:46:57;;;;;;;;;;;1.40;99.90;;;;;;5053395;28;20418;-63
2022/03/08 06:49:23;;;;;;;;;;;1.60;99.90;;;;;;5053370;28;19935;-66
2022/03/08 06:51:52;;;;;;;;;;;1.70;99.90;;;;;;5053343;28;19913;-65
2022/03/08 06:54:17;;;;;;;;;;;1.80;99.70;;;;;;5053326;28;20248;-63
2022/03/08 06:56:43;;;;;;;;;;;2.00;99.70;;;;;;5053293;28;19923;-63
2022/03/08 06:59:09;;;;;;;;;;;2.20;99.90;;;;;;5053380;28;19909;-65
2022/03/08 07:01:35;;;;;;;;;;;2.10;99.40;;;;;;5054560;28;20375;-65
2022/03/08 07:04:01;;;;;;;;;;;2.10;99.00;;;;;;5062150;28;20384;-66
2022/03/08 07:06:27;;;;;;;;;;;2.30;99.00;;;;;;5053423;28;19970;-66
2022/03/08 07:08:53;;;;;;;;;;;2.50;98.90;;;;;;5056085;28;20352;-66
2022/03/08 07:11:20;;;;;;;;;;;2.30;98.50;;;;;;5057543;28;19912;-64
2022/03/08 07:13:45;;;;;;;;;;;2.10;98.90;;;;;;5072294;28;19909;-66
2022/03/08 07:16:11;;;;;;;;;;;2.60;98.90;;;;;;5056531;28;19921;-66
2022/03/08 07:18:36;;;;;;;;;;;2.80;98.30;;;;;;5055937;28;20007;-66
2022/03/08 07:21:03;;;;;;;;;;;2.80;98.00;;;;;;5057048;28;20338;-65
2022/03/08 07:23:29;;;;;;;;;;;2.90;98.00;;;;;;5057039;28;19913;-66
2022/03/08 07:25:55;;;;;;;;;;;2.90;97.80;;;;;;5055022;28;19923;-66
2022/03/08 07:28:20;;;;;;;;;;;3.00;97.70;;;;;;5056805;28;19909;-66
2022/03/08 07:30:46;;;;;;;;;;;3.20;97.80;;;;;;5076048;28;19915;-66
2022/03/08 07:33:11;;;;;;;;;;;3.30;97.80;;;;;;5077058;28;20283;-65
2022/03/08 07:35:37;;;;;;;;;;;3.40;97.80;;;;;;5077090;28;20286;-65
2022/03/08 07:38:03;;;;;;;;;;;3.40;97.80;;;;;;5073636;28;19912;-66
2022/03/08 07:40:29;;;;;;;;;;;3.40;97.20;;;;;;5065758;28;20319;-66
2022/03/08 07:42:54;;;;;;;;;;;3.40;96.80;;;;;;5057002;28;19916;-66
2022/03/08 07:45:20;;;;;;;;;;;3.50;97.40;;;;;;5056936;28;19909;-66
2022/03/08 07:47:45;;;;;;;;;;;3.50;97.20;;;;;;5056713;28;19908;-66
2022/03/08 07:50:11;;;;;;;;;;;3.80;97.20;;;;;;5056543;28;19999;-66
2022/03/08 07:52:38;;;;;;;;;;;3.80;96.60;;;;;;5056492;28;20364;-66
2022/03/08 07:55:04;;;;;;;;;;;3.90;96.30;;;;;;5056390;28;19940;-66
2022/03/08 07:57:30;;;;;;;;;;;4.10;96.70;;;;;;5054914;28;20002;-66
2022/03/08 07:59:56;;;;;;;;;;;4.10;96.50;;;;;;5056352;28;19948;-66
2022/03/08 08:02:21;;;;;;;;;;;4.10;96.80;;;;;;5056204;28;19909;-65
2022/03/08 08:04:47;;;;;;;;;;;4.10;96.60;;;;;;5056275;28;19913;-66
2022/03/08 08:07:12;;;;;;;;;;;4.20;96.40;;;;;;5055074;28;20031;-67
2022/03/08 08:09:38;;;;;;;;;;;4.20;95.90;;;;;;5056394;28;19912;-66
2022/03/08 08:12:04;;;;;;;;;;;4.30;97.00;;;;;;5056674;28;20003;-66
2022/03/08 08:14:30;;;;;;;;;;;4.60;96.50;;;;;;5056345;28;19909;-67
2022/03/08 08:16:55;;;;;;;;;;;4.50;96.20;;;;;;5056079;28;19923;-67
2022/03/08 08:19:21;;;;;;;;;;;4.50;96.10;;;;;;5056132;28;19974;-66
2022/03/08 08:21:46;;;;;;;;;;;4.60;95.40;;;;;;5056110;28;19931;-67
2022/03/08 08:24:12;;;;;;;;;;;4.70;96.00;;;;;;5056222;28;19912;-67
2022/03/08 08:26:38;;;;;;;;;;;4.70;95.70;;;;;;5056204;28;19912;-65
2022/03/08 08:29:03;;;;;;;;;;;4.60;95.60;;;;;;5054805;28;19909;-66
2022/03/08 08:31:32;;;;;;;;;;;4.80;95.60;;;;;;5055849;28;20003;-66
2022/03/08 08:33:57;;;;;;;;;;;4.70;95.70;;;;;;5059932;28;19912;-67
2022/03/08 08:36:23;;;;;;;;;;;4.90;96.00;;;;;;5064554;28;19917;-66
2022/03/08 08:38:49;;;;;;;;;;;5.10;95.70;;;;;;5053991;28;19955;-67
2022/03/08 08:41:14;;;;;;;;;;;5.00;94.90;;;;;;5055001;28;20279;-66
2022/03/08 08:43:40;;;;;;;;;;;5.00;95.80;;;;;;5055678;28;19916;-66
2022/03/08 08:46:06;;;;;;;;;;;5.10;95.50;;;;;;5055629;28;19936;-66
2022/03/08 08:48:31;;;;;;;;;;;5.30;95.70;;;;;;5055777;28;19908;-67
2022/03/08 08:50:57;;;;;;;;;;;5.40;95.60;;;;;;5055734;28;20371;-67
2022/03/08 08:53:23;;;;;;;;;;;5.10;94.90;;;;;;5055328;28;19908;-67
2022/03/08 08:55:49;;;;;;;;;;;5.10;95.10;;;;;;5055266;28;20027;-64
2022/03/08 08:58:15;;;;;;;;;;;5.00;94.80;;;;;;5055694;28;20408;-67
2022/03/08 09:00:40;;;;;;;;;;;5.10;95.00;;;;;;5055455;28;19912;-65
2022/03/08 09:03:10;;;;;;;;;;;5.10;94.50;;;;;;5055204;28;19915;-65
2022/03/08 09:05:36;;;;;;;;;;;5.10;94.70;;;;;;5055229;28;19912;-65
2022/03/08 09:08:02;;;;;;;;;;;5.40;95.20;;;;;;5055250;28;19908;-67
2022/03/08 09:10:27;;;;;;;;;;;5.70;94.70;;;;;;5055213;28;19919;-67
2022/03/08 09:12:53;;;;;;;;;;;5.90;94.70;;;;;;5053996;28;19954;-67
2022/03/08 09:15:19;;;;;;;;;;;5.90;94.80;;;;;;5055163;28;20396;-67
2022/03/08 09:17:45;;;;;;;;;;;5.80;95.10;;;;;;5055171;28;20414;-67
2022/03/08 09:20:12;;;;;;;;;;;5.80;94.30;;;;;;5060934;28;19916;-65
2022/03/08 09:22:39;;;;;;;;;;;6.10;94.90;;;;;;5075163;28;19920;-67
2022/03/08 09:25:05;;;;;;;;;;;6.30;93.90;;;;;;5075053;28;19912;-66
2022/03/08 09:27:30;;;;;;;;;;;6.00;94.10;;;;;;5075017;28;20488;-67
2022/03/08 09:29:56;;;;;;;;;;;5.80;94.40;;;;;;5074906;28;19912;-65
2022/03/08 09:32:22;;;;;;;;;;;6.00;94.20;;;;;;5074343;28;19908;-67
2022/03/08 09:34:47;;;;;;;;;;;5.90;93.90;;;;;;5074790;28;19916;-67
2022/03/08 09:37:13;;;;;;;;;;;6.50;94.10;;;;;;5074257;28;20059;-67
2022/03/08 09:39:39;;;;;;;;;;;6.70;93.70;;;;;;5074556;28;19937;-67
2022/03/08 09:42:05;;;;;;;;;;;6.70;94.00;;;;;;5073213;28;19989;-67
2022/03/08 09:44:31;;;;;;;;;;;6.40;93.90;;;;;;5073131;28;19995;-65
2022/03/08 09:46:56;;;;;;;;;;;6.70;93.90;;;;;;5074549;28;19916;-65
2022/03/08 09:49:22;;;;;;;;;;;6.60;94.00;;;;;;5074537;28;19961;-67
2022/03/08 09:51:50;;;;;;;;;;;6.90;94.40;;;;;;5074444;28;19958;-67
2022/03/08 09:54:15;;;;;;;;;;;7.00;93.40;;;;;;5074186;28;19935;-67
2022/03/08 09:56:42;;;;;;;;;;;6.90;93.50;;;;;;5074199;28;19930;-67
2022/03/08 09:59:07;;;;;;;;;;;6.70;93.80;;;;;;5074235;28;19951;-67
2022/03/08 10:01:33;;;;;;;;;;;7.00;94.10;;;;;;5074295;28;19932;-67
2022/03/08 10:03:59;;;;;;;;;;;7.20;93.00;;;;;;5072939;28;19908;-66
2022/03/08 10:06:37;;;;;;;;;;;7.30;93.20;;;;;;5074198;28;19999;-67
2022/03/08 10:09:13;;;;;;;;;;;7.20;92.90;;;;;;5072898;28;19908;-67
2022/03/08 10:11:39;;;;;;;;;;;7.40;93.00;;;;;;5074008;28;19995;-67
2022/03/08 10:14:05;;;;;;;;;;;7.40;94.10;;;;;;5074082;28;20345;-67
2022/03/08 10:16:42;;;;;;;;;;;7.40;93.40;;;;;;5073874;28;19920;-67
2022/03/08 10:19:09;;;;;;;;;;;7.30;92.60;;;;;;5073985;28;19912;-66
2022/03/08 10:21:40;;;;;;;;;;;7.40;93.60;;;;;;5072657;28;19915;-67
2022/03/08 10:24:20;;;;;;;;;;;7.80;93.00;;;;;;5073679;28;19916;-68
2022/03/08 10:26:50;;;;;;;;;;;8.00;92.90;;;;;;5073759;28;19908;-68
2022/03/08 10:29:25;;;;;;;;;;;7.80;92.40;;;;;;5073931;28;20374;-67
2022/03/08 10:32:07;;;;;;;;;;;7.50;92.60;;;;;;5073790;28;19961;-67
2022/03/08 10:34:34;;;;;;;;;;;7.40;92.80;;;;;;5073738;28;20536;-65
2022/03/08 10:37:09;;;;;;;;;;;7.90;92.90;;;;;;5073641;28;19917;-67
2022/03/08 10:39:46;;;;;;;;;;;7.80;92.40;;;;;;5073646;28;19961;-67
2022/03/08 10:42:18;;;;;;;;;;;8.00;93.10;;;;;;5072866;28;19909;-68
2022/03/08 10:44:44;;;;;;;;;;;8.00;92.60;;;;;;5073203;28;20045;-67
2022/03/08 10:47:11;;;;;;;;;;;7.90;93.30;;;;;;5073291;28;20003;-68
2022/03/08 10:49:47;;;;;;;;;;;8.20;93.10;;;;;;5073459;28;19908;-69
2022/03/08 10:52:13;;;;;;;;;;;8.30;92.70;;;;;;5072233;28;20283;-68
2022/03/08 10:54:38;;;;;;;;;;;8.30;92.40;;;;;;5072328;28;19912;-68
2022/03/08 10:57:04;;;;;;;;;;;8.30;92.80;;;;;;5073513;28;20429;-68
2022/03/08 10:59:30;;;;;;;;;;;;;;;;;;5073235;28;19944;-68
2022/03/08 11:01:56;;;;;;;;;;;8.50;99.90;;;;;;5073399;28;19915;-67
2022/03/08 11:04:23;;;;;;;;;;;8.40;94.70;;;;;;5073501;28;20447;-67
2022/03/08 11:06:52;;;;;;;;;;;8.80;94.10;;;;;;5073464;28;20283;-67
2022/03/08 11:09:18;;;;;;;;;;;8.90;93.00;;;;;;5073502;28;20347;-66
2022/03/08 11:11:45;;;;;;;;;;;8.90;93.60;;;;;;5073394;28;19913;-66
2022/03/08 11:14:10;;;;;;;;;;;8.70;92.50;;;;;;5073259;28;19908;-67
2022/03/08 11:16:37;;;;;;;;;;;8.90;93.20;;;;;;5071938;28;19985;-67
2022/03/08 11:19:05;;;;;;;;;;;8.80;92.30;;;;;;5073285;28;19912;-68
2022/03/08 11:21:32;;;;;;;;;;;8.80;92.10;;;;;;5073198;28;20496;-66
2022/03/08 11:23:58;;;;;;;;;;;8.90;92.50;;;;;;5073342;28;20379;-66
2022/03/08 11:26:24;;;;;;;;;;;9.20;92.50;;;;;;5071986;28;19908;-68
2022/03/08 11:28:49;;;;;;;;;;;9.20;91.90;;;;;;5073120;28;19916;-65
2022/03/08 11:31:21;;;;;;;;;;;9.50;92.70;;;;;;5073035;28;20530;-66
2022/03/08 11:33:51;;;;;;;;;;;9.50;92.80;;;;;;5072870;28;19908;-67
2022/03/08 11:36:30;;;;;;;;;;;9.60;91.10;;;;;;5073064;28;19923;-67
2022/03/08 11:39:12;;;;;;;;;;;9.30;92.10;;;;;;5072665;28;19915;-67
2022/03/08 11:41:38;;;;;;;;;;;9.40;91.90;;;;;;5073154;28;19919;-67
2022/03/08 11:44:04;;;;;;;;;;;9.40;91.50;;;;;;5073047;28;19908;-67
2022/03/08 11:46:30;;;;;;;;;;;9.50;91.70;;;;;;5073022;28;19943;-66
2022/03/08 11:49:00;;;;;;;;;;;9.40;91.80;;;;;;5072749;28;19908;-67
2022/03/08 11:51:27;;;;;;;;;;;10.20;92.40;;;;;;5072799;28;19909;-67
2022/03/08 11:54:02;;;;;;;;;;;9.80;91.60;;;;;;5073721;28;19912;-67
2022/03/08 11:56:28;;;;;;;;;;;10.10;91.40;;;;;;5076689;28;19920;-66
2022/03/08 11:58:53;;;;;;;;;;;10.10;91.60;;;;;;5076399;28;19915;-68
2022/03/08 12:01:22;;;;;;;;;;;9.90;90.30;;;;;;5076296;28;19908;-68
2022/03/08 12:03:52;;;;;;;;;;;9.80;90.50;;;;;;5076346;28;19908;-68
2022/03/08 12:06:28;;;;;;;;;;;10.00;90.70;;;;;;5076157;28;19943;-68
2022/03/08 12:08:59;;;;;;;;;;;10.50;91.10;;;;;;5076480;28;20010;-67
2022/03/08 12:11:33;;;;;;;;;;;10.30;91.20;;;;;;5076533;28;19986;-68
2022/03/08 12:14:00;;;;;;;;;;;10.30;90.00;;;;;;5076487;28;19919;-66
2022/03/08 12:16:26;;;;;;;;;;;10.30;90.20;;;;;;5076373;28;19915;-67
2022/03/08 12:18:53;;;;;;;;;;;10.20;89.20;;;;;;5076278;28;20279;-70
2022/03/08 12:21:28;;;;;;;;;;;10.00;87.00;;;;;;5076260;28;19938;-67
2022/03/08 12:23:59;;;;;;;;;;;10.40;90.00;;;;;;5076026;28;19912;-68
2022/03/08 12:26:39;;;;;;;;;;;10.50;86.80;;;;;;5074816;28;19958;-68
2022/03/08 12:29:06;;;;;;;;;;;10.70;88.00;;;;;;5071915;28;20360;-65
2022/03/08 12:31:32;;;;;;;;;;;10.50;88.50;;;;;;5064822;28;19908;-67
2022/03/08 12:34:02;;;;;;;;;;;10.30;88.60;;;;;;5055712;28;19909;-67
2022/03/08 12:36:28;;;;;;;;;;;10.70;90.30;;;;;;5055716;28;19947;-68
2022/03/08 12:38:53;;;;;;;;;;;11.00;87.00;;;;;;5057007;28;19916;-68
2022/03/08 12:41:25;;;;;;;;;;;10.80;86.50;;;;;;5067619;28;19908;-68
2022/03/08 12:44:00;;;;;;;;;;;10.80;87.20;;;;;;5053648;28;19909;-67
2022/03/08 12:46:27;;;;;;;;;;;11.20;88.60;;;;;;5053143;28;19909;-68
2022/03/08 12:48:53;;;;;;;;;;;11.20;89.80;;;;;;5055780;28;20364;-66
2022/03/08 12:51:20;;;;;;;;;;;10.90;87.10;;;;;;5055681;28;19909;-67
2022/03/08 12:53:49;;;;;;;;;;;11.20;87.30;;;;;;5055685;28;19998;-68
2022/03/08 12:56:17;;;;;;;;;;;10.90;87.00;;;;;;5055461;28;19920;-67
2022/03/08 12:58:43;;;;;;;;;;;11.10;88.00;;;;;;5055626;28;19943;-66
2022/03/08 13:01:09;;;;;;;;;;;11.10;86.80;;;;;;5071031;28;20001;-66
2022/03/08 13:03:36;;;;;;;;;;;11.00;87.30;;;;;;5055498;28;19916;-67
2022/03/08 13:06:03;;;;;;;;;;;11.10;88.10;;;;;;5054550;28;19912;-67
2022/03/08 13:08:30;;;;;;;;;;;11.50;90.50;;;;;;5055459;28;20333;-66
2022/03/08 13:10:57;;;;;;;;;;;11.50;88.70;;;;;;5055333;28;19939;-66
2022/03/08 13:13:23;;;;;;;;;;;11.70;89.60;;;;;;5055116;28;19912;-68
2022/03/08 13:15:49;;;;;;;;;;;11.60;88.80;;;;;;5055044;28;20348;-68
2022/03/08 13:18:21;;;;;;;;;;;11.50;87.50;;;;;;5055239;28;19919;-68
2022/03/08 13:20:48;;;;;;;;;;;11.80;88.30;;;;;;5055160;28;19920;-68
2022/03/08 13:23:15;;;;;;;;;;;11.80;89.70;;;;;;5055044;28;19943;-66
2022/03/08 13:25:42;;;;;;;;;;;11.80;87.50;;;;;;5053710;28;19976;-69
2022/03/08 13:28:12;;;;;;;;;;;11.80;88.70;;;;;;5055180;28;19959;-68
2022/03/08 13:30:42;;;;;;;;;;;12.00;88.70;;;;;;5054615;28;19917;-67
2022/03/08 13:33:17;;;;;;;;;;;12.10;88.30;;;;;;5054293;28;19948;-66
2022/03/08 13:35:47;;;;;;;;;;;11.80;88.60;;;;;;5054210;28;19916;-67
2022/03/08 13:38:14;;;;;;;;;;;12.10;89.50;;;;;;5057138;28;19912;-68
2022/03/08 13:40:40;;;;;;;;;;;11.90;86.90;;;;;;5074172;28;19909;-67
2022/03/08 13:43:06;;;;;;;;;;;11.80;89.30;;;;;;5074714;28;20257;-68
2022/03/08 13:45:32;;;;;;;;;;;12.00;89.20;;;;;;5074613;28;19908;-67
2022/03/08 13:47:59;;;;;;;;;;;11.80;88.70;;;;;;5074452;28;19966;-68
2022/03/08 13:50:25;;;;;;;;;;;12.20;89.30;;;;;;5074463;28;19998;-68
2022/03/08 13:52:54;;;;;;;;;;;12.00;88.90;;;;;;5074287;28;19910;-68
2022/03/08 13:55:25;;;;;;;;;;;12.10;88.90;;;;;;5074251;28;20375;-67
2022/03/08 13:57:54;;;;;;;;;;;12.00;88.60;;;;;;5074319;28;19916;-68
2022/03/08 14:00:19;;;;;;;;;;;12.00;87.40;;;;;;5074365;28;19912;-67
2022/03/08 14:02:45;;;;;;;;;;;11.70;87.00;;;;;;5072997;28;19914;-67
2022/03/08 14:05:11;;;;;;;;;;;11.90;89.70;;;;;;5074369;28;19935;-67
2022/03/08 14:07:36;;;;;;;;;;;11.90;88.30;;;;;;5068245;28;20399;-69
2022/03/08 14:10:03;;;;;;;;;;;12.40;90.60;;;;;;5061432;28;19908;-72
2022/03/08 14:12:43;;;;;;;;;;;12.30;89.60;;;;;;5059413;28;19913;-69
2022/03/08 14:15:09;;;;;;;;;;;12.30;90.90;;;;;;5053516;28;20411;-68
2022/03/08 14:17:35;;;;;;;;;;;12.40;91.30;;;;;;5072935;28;19951;-71
2022/03/08 14:20:12;;;;;;;;;;;12.20;90.60;;;;;;5074349;28;19908;-70
2022/03/08 14:22:57;;;;;;;;;;;12.20;90.90;;;;;;5057853;28;19962;-69
2022/03/08 14:25:22;;;;;;;;;;;12.00;91.10;;;;;;5053141;28;20342;-66
2022/03/08 14:27:49;;;;;;;;;;;11.90;90.80;;;;;;5053822;28;20012;-67